sensor_id;sensor_type;location;lat;lon;timestamp;P1;durP1;ratioP1;P2;durP2;ratioP2
53267;SDS011;39156;51.176;6.738;2022-12-18T00:01:05;62.65;;;58.22;;
53267;SDS011;39156;51.176;6.738;2022-12-18T00:03:59;61.83;;;57.63;;
53267;SDS011;39156;51.176;6.738;2022-12-18T00:06:29;62.22;;;58.13;;
53267;SDS011;39156;51.176;6.738;2022-12-18T00:08:58;61.53;;;57.50;;
53267;SDS011;39156;51.176;6.738;2022-12-18T00:11:26;62.15;;;57.83;;
53267;SDS011;39156;51.176;6.738;2022-12-18T00:13:54;63.08;;;58.97;;
53267;SDS011;39156;51.176;6.738;2022-12-18T00:16:22;61.95;;;57.78;;
53267;SDS011;39156;51.176;6.738;2022-12-18T00:18:52;61.35;;;57.22;;
53267;SDS011;39156;51.176;6.738;2022-12-18T00:21:19;62.95;;;58.70;;
53267;SDS011;39156;51.176;6.738;2022-12-18T00:23:46;63.78;;;59.47;;
53267;SDS011;39156;51.176;6.738;2022-12-18T00:26:14;61.55;;;57.35;;
53267;SDS011;39156;51.176;6.738;2022-12-18T00:28:45;62.22;;;57.95;;
53267;SDS011;39156;51.176;6.738;2022-12-18T00:31:18;63.47;;;59.20;;
53267;SDS011;39156;51.176;6.738;2022-12-18T00:33:47;62.50;;;58.45;;
53267;SDS011;39156;51.176;6.738;2022-12-18T00:36:14;61.90;;;57.40;;
53267;SDS011;39156;51.176;6.738;2022-12-18T00:38:42;62.38;;;58.13;;
53267;SDS011;39156;51.176;6.738;2022-12-18T00:41:09;63.40;;;58.85;;
53267;SDS011;39156;51.176;6.738;2022-12-18T00:43:38;63.25;;;58.95;;
53267;SDS011;39156;51.176;6.738;2022-12-18T00:46:04;62.35;;;58.25;;
53267;SDS011;39156;51.176;6.738;2022-12-18T00:48:30;63.60;;;59.22;;
53267;SDS011;39156;51.176;6.738;2022-12-18T00:50:57;62.67;;;58.27;;
53267;SDS011;39156;51.176;6.738;2022-12-18T00:53:23;64.18;;;59.78;;
53267;SDS011;39156;51.176;6.738;2022-12-18T00:55:48;65.18;;;60.78;;
53267;SDS011;39156;51.176;6.738;2022-12-18T00:58:14;63.70;;;59.22;;
53267;SDS011;39156;51.176;6.738;2022-12-18T01:00:41;64.72;;;60.25;;
53267;SDS011;39156;51.176;6.738;2022-12-18T01:03:07;64.53;;;60.22;;
53267;SDS011;39156;51.176;6.738;2022-12-18T01:05:38;65.20;;;60.50;;
53267;SDS011;39156;51.176;6.738;2022-12-18T01:08:07;64.53;;;60.10;;
53267;SDS011;39156;51.176;6.738;2022-12-18T01:10:33;64.97;;;60.53;;
53267;SDS011;39156;51.176;6.738;2022-12-18T01:12:59;64.45;;;60.05;;
53267;SDS011;39156;51.176;6.738;2022-12-18T01:15:24;64.60;;;60.25;;
53267;SDS011;39156;51.176;6.738;2022-12-18T01:17:51;63.70;;;59.50;;
53267;SDS011;39156;51.176;6.738;2022-12-18T01:20:18;63.55;;;59.15;;
53267;SDS011;39156;51.176;6.738;2022-12-18T01:22:44;62.33;;;58.10;;
53267;SDS011;39156;51.176;6.738;2022-12-18T01:25:09;64.18;;;60.00;;
53267;SDS011;39156;51.176;6.738;2022-12-18T01:27:35;65.47;;;60.85;;
53267;SDS011;39156;51.176;6.738;2022-12-18T01:30:01;63.85;;;59.50;;
53267;SDS011;39156;51.176;6.738;2022-12-18T01:32:29;62.95;;;58.78;;
53267;SDS011;39156;51.176;6.738;2022-12-18T01:34:55;64.60;;;60.17;;
53267;SDS011;39156;51.176;6.738;2022-12-18T01:37:21;64.57;;;60.08;;
53267;SDS011;39156;51.176;6.738;2022-12-18T01:39:47;65.28;;;60.78;;
53267;SDS011;39156;51.176;6.738;2022-12-18T01:42:13;66.25;;;61.65;;
53267;SDS011;39156;51.176;6.738;2022-12-18T01:47:52;65.60;;;61.00;;
53267;SDS011;39156;51.176;6.738;2022-12-18T01:53:10;65.07;;;60.70;;
53267;SDS011;39156;51.176;6.738;2022-12-18T01:58:14;63.65;;;59.40;;
53267;SDS011;39156;51.176;6.738;2022-12-18T02:00:41;63.45;;;59.33;;
53267;SDS011;39156;51.176;6.738;2022-12-18T02:03:07;62.08;;;57.83;;
53267;SDS011;39156;51.176;6.738;2022-12-18T02:05:39;64.90;;;60.60;;
53267;SDS011;39156;51.176;6.738;2022-12-18T02:08:28;63.00;;;58.65;;
53267;SDS011;39156;51.176;6.738;2022-12-18T02:28:42;65.75;;;61.35;;
53267;SDS011;39156;51.176;6.738;2022-12-18T02:31:19;64.55;;;60.05;;
53267;SDS011;39156;51.176;6.738;2022-12-18T02:33:51;64.90;;;60.60;;
53267;SDS011;39156;51.176;6.738;2022-12-18T02:36:20;64.40;;;60.00;;
53267;SDS011;39156;51.176;6.738;2022-12-18T02:38:47;66.03;;;61.47;;
53267;SDS011;39156;51.176;6.738;2022-12-18T02:41:14;64.78;;;60.28;;
53267;SDS011;39156;51.176;6.738;2022-12-18T02:43:46;64.38;;;60.05;;
53267;SDS011;39156;51.176;6.738;2022-12-18T02:46:23;65.22;;;60.65;;
53267;SDS011;39156;51.176;6.738;2022-12-18T02:49:08;65.07;;;60.67;;
53267;SDS011;39156;51.176;6.738;2022-12-18T02:55:05;63.13;;;58.85;;
53267;SDS011;39156;51.176;6.738;2022-12-18T02:58:05;63.40;;;59.20;;
53267;SDS011;39156;51.176;6.738;2022-12-18T03:00:48;62.55;;;58.35;;
53267;SDS011;39156;51.176;6.738;2022-12-18T03:03:34;63.10;;;59.05;;
53267;SDS011;39156;51.176;6.738;2022-12-18T03:06:08;64.28;;;59.97;;
53267;SDS011;39156;51.176;6.738;2022-12-18T03:08:42;61.95;;;58.10;;
53267;SDS011;39156;51.176;6.738;2022-12-18T03:11:13;63.28;;;59.08;;
53267;SDS011;39156;51.176;6.738;2022-12-18T03:16:17;64.10;;;59.85;;
53267;SDS011;39156;51.176;6.738;2022-12-18T03:18:54;64.72;;;60.25;;
53267;SDS011;39156;51.176;6.738;2022-12-18T03:21:26;63.25;;;58.80;;
53267;SDS011;39156;51.176;6.738;2022-12-18T03:23:59;62.75;;;58.55;;
53267;SDS011;39156;51.176;6.738;2022-12-18T03:26:26;64.57;;;60.08;;
53267;SDS011;39156;51.176;6.738;2022-12-18T03:28:53;63.15;;;58.83;;
53267;SDS011;39156;51.176;6.738;2022-12-18T03:31:25;64.43;;;60.13;;
53267;SDS011;39156;51.176;6.738;2022-12-18T03:33:54;62.65;;;58.47;;
53267;SDS011;39156;51.176;6.738;2022-12-18T03:36:24;62.65;;;58.63;;
53267;SDS011;39156;51.176;6.738;2022-12-18T03:38:50;63.45;;;59.35;;
53267;SDS011;39156;51.176;6.738;2022-12-18T03:41:18;64.88;;;60.63;;
53267;SDS011;39156;51.176;6.738;2022-12-18T03:47:16;63.53;;;59.28;;
53267;SDS011;39156;51.176;6.738;2022-12-18T03:49:57;63.00;;;58.80;;
53267;SDS011;39156;51.176;6.738;2022-12-18T03:52:48;62.72;;;58.72;;
53267;SDS011;39156;51.176;6.738;2022-12-18T03:55:41;62.22;;;58.13;;
53267;SDS011;39156;51.176;6.738;2022-12-18T03:58:07;61.95;;;57.83;;
53267;SDS011;39156;51.176;6.738;2022-12-18T04:00:35;63.88;;;59.65;;
53267;SDS011;39156;51.176;6.738;2022-12-18T04:03:01;61.53;;;57.42;;
53267;SDS011;39156;51.176;6.738;2022-12-18T04:05:28;62.40;;;58.20;;
53267;SDS011;39156;51.176;6.738;2022-12-18T04:07:57;62.78;;;58.47;;
53267;SDS011;39156;51.176;6.738;2022-12-18T04:10:23;60.78;;;56.67;;
53267;SDS011;39156;51.176;6.738;2022-12-18T04:12:48;62.28;;;58.13;;
53267;SDS011;39156;51.176;6.738;2022-12-18T04:15:14;63.95;;;59.60;;
53267;SDS011;39156;51.176;6.738;2022-12-18T04:17:42;63.72;;;59.35;;
53267;SDS011;39156;51.176;6.738;2022-12-18T04:20:14;63.25;;;59.05;;
53267;SDS011;39156;51.176;6.738;2022-12-18T04:22:41;62.22;;;58.20;;
53267;SDS011;39156;51.176;6.738;2022-12-18T04:25:07;61.33;;;57.30;;
53267;SDS011;39156;51.176;6.738;2022-12-18T04:27:33;61.05;;;56.95;;
53267;SDS011;39156;51.176;6.738;2022-12-18T04:29:59;63.10;;;58.80;;
53267;SDS011;39156;51.176;6.738;2022-12-18T04:32:25;62.92;;;58.67;;
53267;SDS011;39156;51.176;6.738;2022-12-18T04:34:50;62.13;;;58.15;;
53267;SDS011;39156;51.176;6.738;2022-12-18T04:37:16;63.00;;;58.80;;
53267;SDS011;39156;51.176;6.738;2022-12-18T04:39:42;62.88;;;58.78;;
53267;SDS011;39156;51.176;6.738;2022-12-18T04:42:08;62.53;;;58.42;;
53267;SDS011;39156;51.176;6.738;2022-12-18T04:44:33;64.60;;;60.33;;
53267;SDS011;39156;51.176;6.738;2022-12-18T04:46:59;62.90;;;58.80;;
53267;SDS011;39156;51.176;6.738;2022-12-18T04:49:25;63.42;;;59.25;;
53267;SDS011;39156;51.176;6.738;2022-12-18T04:51:50;65.13;;;60.97;;
53267;SDS011;39156;51.176;6.738;2022-12-18T04:54:16;61.65;;;57.65;;
53267;SDS011;39156;51.176;6.738;2022-12-18T04:56:45;60.97;;;57.13;;
53267;SDS011;39156;51.176;6.738;2022-12-18T04:59:10;62.20;;;57.58;;
53267;SDS011;39156;51.176;6.738;2022-12-18T05:01:36;61.63;;;57.53;;
53267;SDS011;39156;51.176;6.738;2022-12-18T05:04:02;62.58;;;58.45;;
53267;SDS011;39156;51.176;6.738;2022-12-18T05:06:28;62.47;;;58.42;;
53267;SDS011;39156;51.176;6.738;2022-12-18T05:08:54;61.25;;;57.35;;
53267;SDS011;39156;51.176;6.738;2022-12-18T05:11:20;63.08;;;58.97;;
53267;SDS011;39156;51.176;6.738;2022-12-18T05:13:46;63.33;;;59.13;;
53267;SDS011;39156;51.176;6.738;2022-12-18T05:16:12;68.32;;;63.63;;
53267;SDS011;39156;51.176;6.738;2022-12-18T05:18:39;62.80;;;58.63;;
53267;SDS011;39156;51.176;6.738;2022-12-18T05:21:05;63.28;;;58.72;;
53267;SDS011;39156;51.176;6.738;2022-12-18T05:23:31;63.45;;;59.22;;
53267;SDS011;39156;51.176;6.738;2022-12-18T05:25:58;62.83;;;58.72;;
53267;SDS011;39156;51.176;6.738;2022-12-18T05:28:26;62.80;;;58.58;;
53267;SDS011;39156;51.176;6.738;2022-12-18T05:30:55;62.75;;;58.53;;
53267;SDS011;39156;51.176;6.738;2022-12-18T05:33:24;62.78;;;58.67;;
53267;SDS011;39156;51.176;6.738;2022-12-18T05:35:52;61.65;;;57.70;;
53267;SDS011;39156;51.176;6.738;2022-12-18T05:38:26;62.42;;;58.33;;
53267;SDS011;39156;51.176;6.738;2022-12-18T05:40:53;64.07;;;59.80;;
53267;SDS011;39156;51.176;6.738;2022-12-18T05:43:19;62.78;;;58.78;;
53267;SDS011;39156;51.176;6.738;2022-12-18T05:48:13;62.80;;;58.35;;
53267;SDS011;39156;51.176;6.738;2022-12-18T05:50:40;60.90;;;57.13;;
53267;SDS011;39156;51.176;6.738;2022-12-18T05:53:07;61.58;;;57.55;;
53267;SDS011;39156;51.176;6.738;2022-12-18T05:55:34;61.08;;;57.28;;
53267;SDS011;39156;51.176;6.738;2022-12-18T05:58:01;61.58;;;57.78;;
53267;SDS011;39156;51.176;6.738;2022-12-18T06:00:28;63.67;;;59.67;;
53267;SDS011;39156;51.176;6.738;2022-12-18T06:02:55;61.42;;;57.53;;
53267;SDS011;39156;51.176;6.738;2022-12-18T06:05:21;64.25;;;60.25;;
53267;SDS011;39156;51.176;6.738;2022-12-18T06:07:46;61.63;;;57.85;;
53267;SDS011;39156;51.176;6.738;2022-12-18T06:10:12;59.38;;;55.75;;
53267;SDS011;39156;51.176;6.738;2022-12-18T06:12:38;61.78;;;57.97;;
53267;SDS011;39156;51.176;6.738;2022-12-18T06:15:04;61.13;;;57.33;;
53267;SDS011;39156;51.176;6.738;2022-12-18T06:17:31;60.45;;;56.65;;
53267;SDS011;39156;51.176;6.738;2022-12-18T06:19:57;61.15;;;57.25;;
53267;SDS011;39156;51.176;6.738;2022-12-18T06:22:23;61.17;;;57.40;;
53267;SDS011;39156;51.176;6.738;2022-12-18T06:24:49;62.63;;;58.72;;
53267;SDS011;39156;51.176;6.738;2022-12-18T06:27:15;63.00;;;58.90;;
53267;SDS011;39156;51.176;6.738;2022-12-18T06:29:40;62.13;;;58.08;;
53267;SDS011;39156;51.176;6.738;2022-12-18T06:32:06;62.03;;;58.10;;
53267;SDS011;39156;51.176;6.738;2022-12-18T06:34:32;62.45;;;58.50;;
53267;SDS011;39156;51.176;6.738;2022-12-18T06:36:59;62.45;;;58.35;;
53267;SDS011;39156;51.176;6.738;2022-12-18T06:39:26;62.03;;;58.00;;
53267;SDS011;39156;51.176;6.738;2022-12-18T06:41:52;62.75;;;58.38;;
53267;SDS011;39156;51.176;6.738;2022-12-18T06:44:18;63.30;;;59.15;;
53267;SDS011;39156;51.176;6.738;2022-12-18T06:46:44;63.10;;;58.92;;
53267;SDS011;39156;51.176;6.738;2022-12-18T06:49:10;62.35;;;58.25;;
53267;SDS011;39156;51.176;6.738;2022-12-18T06:51:36;61.13;;;57.17;;
53267;SDS011;39156;51.176;6.738;2022-12-18T06:54:02;62.28;;;58.15;;
53267;SDS011;39156;51.176;6.738;2022-12-18T06:56:28;60.42;;;56.33;;
53267;SDS011;39156;51.176;6.738;2022-12-18T06:58:54;62.10;;;57.97;;
53267;SDS011;39156;51.176;6.738;2022-12-18T07:01:20;60.92;;;56.97;;
53267;SDS011;39156;51.176;6.738;2022-12-18T07:03:46;61.20;;;56.97;;
53267;SDS011;39156;51.176;6.738;2022-12-18T07:06:17;61.80;;;58.03;;
53267;SDS011;39156;51.176;6.738;2022-12-18T07:08:45;61.72;;;57.63;;
53267;SDS011;39156;51.176;6.738;2022-12-18T07:11:12;61.35;;;57.53;;
53267;SDS011;39156;51.176;6.738;2022-12-18T07:13:38;62.08;;;58.03;;
53267;SDS011;39156;51.176;6.738;2022-12-18T07:18:34;60.67;;;56.70;;
53267;SDS011;39156;51.176;6.738;2022-12-18T07:21:07;61.30;;;57.40;;
53267;SDS011;39156;51.176;6.738;2022-12-18T07:23:38;62.13;;;58.10;;
53267;SDS011;39156;51.176;6.738;2022-12-18T07:26:04;60.47;;;56.22;;
53267;SDS011;39156;51.176;6.738;2022-12-18T07:28:35;60.97;;;57.10;;
53267;SDS011;39156;51.176;6.738;2022-12-18T07:31:09;60.45;;;56.47;;
53267;SDS011;39156;51.176;6.738;2022-12-18T07:33:39;60.72;;;56.67;;
53267;SDS011;39156;51.176;6.738;2022-12-18T07:36:06;60.50;;;56.50;;
53267;SDS011;39156;51.176;6.738;2022-12-18T07:38:33;60.58;;;56.60;;
53267;SDS011;39156;51.176;6.738;2022-12-18T07:41:04;62.35;;;58.17;;
53267;SDS011;39156;51.176;6.738;2022-12-18T07:43:32;61.25;;;57.40;;
53267;SDS011;39156;51.176;6.738;2022-12-18T07:45:59;61.65;;;57.60;;
53267;SDS011;39156;51.176;6.738;2022-12-18T07:48:24;63.33;;;59.13;;
53267;SDS011;39156;51.176;6.738;2022-12-18T07:50:51;62.40;;;58.17;;
53267;SDS011;39156;51.176;6.738;2022-12-18T07:53:17;61.28;;;57.20;;
53267;SDS011;39156;51.176;6.738;2022-12-18T07:55:43;61.15;;;57.08;;
53267;SDS011;39156;51.176;6.738;2022-12-18T07:58:09;61.47;;;57.28;;
53267;SDS011;39156;51.176;6.738;2022-12-18T08:00:35;60.72;;;56.75;;
53267;SDS011;39156;51.176;6.738;2022-12-18T08:03:01;60.65;;;56.60;;
53267;SDS011;39156;51.176;6.738;2022-12-18T08:05:27;60.97;;;56.88;;
53267;SDS011;39156;51.176;6.738;2022-12-18T08:07:53;59.40;;;55.45;;
53267;SDS011;39156;51.176;6.738;2022-12-18T08:10:19;61.10;;;57.10;;
53267;SDS011;39156;51.176;6.738;2022-12-18T08:12:45;59.90;;;55.97;;
53267;SDS011;39156;51.176;6.738;2022-12-18T08:15:14;59.63;;;55.67;;
53267;SDS011;39156;51.176;6.738;2022-12-18T08:17:39;61.15;;;57.17;;
53267;SDS011;39156;51.176;6.738;2022-12-18T08:20:05;62.47;;;58.35;;
53267;SDS011;39156;51.176;6.738;2022-12-18T08:22:33;60.30;;;56.25;;
53267;SDS011;39156;51.176;6.738;2022-12-18T08:25:00;60.90;;;56.80;;
53267;SDS011;39156;51.176;6.738;2022-12-18T08:27:27;60.20;;;56.20;;
53267;SDS011;39156;51.176;6.738;2022-12-18T08:29:52;60.08;;;56.17;;
53267;SDS011;39156;51.176;6.738;2022-12-18T08:32:18;61.00;;;57.00;;
53267;SDS011;39156;51.176;6.738;2022-12-18T08:34:44;59.88;;;55.78;;
53267;SDS011;39156;51.176;6.738;2022-12-18T08:37:09;59.13;;;55.33;;
53267;SDS011;39156;51.176;6.738;2022-12-18T08:39:35;59.30;;;55.40;;
53267;SDS011;39156;51.176;6.738;2022-12-18T08:42:01;58.08;;;54.13;;
53267;SDS011;39156;51.176;6.738;2022-12-18T08:44:45;58.15;;;54.25;;
53267;SDS011;39156;51.176;6.738;2022-12-18T08:47:11;56.50;;;52.15;;
53267;SDS011;39156;51.176;6.738;2022-12-18T08:49:36;56.00;;;51.92;;
53267;SDS011;39156;51.176;6.738;2022-12-18T08:52:02;55.10;;;51.60;;
53267;SDS011;39156;51.176;6.738;2022-12-18T08:54:28;54.67;;;51.13;;
53267;SDS011;39156;51.176;6.738;2022-12-18T08:56:54;53.88;;;49.92;;
53267;SDS011;39156;51.176;6.738;2022-12-18T08:59:20;54.25;;;50.72;;
53267;SDS011;39156;51.176;6.738;2022-12-18T09:01:45;53.03;;;49.53;;
53267;SDS011;39156;51.176;6.738;2022-12-18T09:04:12;54.72;;;51.10;;
53267;SDS011;39156;51.176;6.738;2022-12-18T09:06:38;53.20;;;49.70;;
53267;SDS011;39156;51.176;6.738;2022-12-18T09:09:04;55.20;;;51.58;;
53267;SDS011;39156;51.176;6.738;2022-12-18T09:11:31;52.73;;;49.30;;
53267;SDS011;39156;51.176;6.738;2022-12-18T09:13:58;54.25;;;50.72;;
53267;SDS011;39156;51.176;6.738;2022-12-18T09:16:26;54.03;;;50.33;;
53267;SDS011;39156;51.176;6.738;2022-12-18T09:18:54;53.92;;;50.42;;
53267;SDS011;39156;51.176;6.738;2022-12-18T09:21:24;55.05;;;51.35;;
53267;SDS011;39156;51.176;6.738;2022-12-18T09:23:53;54.70;;;51.10;;
53267;SDS011;39156;51.176;6.738;2022-12-18T09:26:24;53.45;;;49.72;;
53267;SDS011;39156;51.176;6.738;2022-12-18T09:28:51;52.05;;;48.65;;
53267;SDS011;39156;51.176;6.738;2022-12-18T09:31:18;51.85;;;48.45;;
53267;SDS011;39156;51.176;6.738;2022-12-18T09:33:46;52.40;;;49.03;;
53267;SDS011;39156;51.176;6.738;2022-12-18T09:36:13;50.58;;;47.25;;
53267;SDS011;39156;51.176;6.738;2022-12-18T09:38:41;53.85;;;50.10;;
53267;SDS011;39156;51.176;6.738;2022-12-18T09:44:11;53.38;;;49.67;;
53267;SDS011;39156;51.176;6.738;2022-12-18T09:46:48;54.28;;;50.70;;
53267;SDS011;39156;51.176;6.738;2022-12-18T09:49:19;53.17;;;49.58;;
53267;SDS011;39156;51.176;6.738;2022-12-18T09:52:00;52.45;;;48.75;;
53267;SDS011;39156;51.176;6.738;2022-12-18T09:54:40;53.20;;;49.72;;
53267;SDS011;39156;51.176;6.738;2022-12-18T09:57:06;54.30;;;50.55;;
53267;SDS011;39156;51.176;6.738;2022-12-18T09:59:42;55.22;;;51.42;;
53267;SDS011;39156;51.176;6.738;2022-12-18T10:02:17;54.30;;;50.60;;
53267;SDS011;39156;51.176;6.738;2022-12-18T10:04:58;54.15;;;50.38;;
53267;SDS011;39156;51.176;6.738;2022-12-18T10:10:48;56.40;;;52.30;;
53267;SDS011;39156;51.176;6.738;2022-12-18T10:13:22;54.30;;;50.70;;
53267;SDS011;39156;51.176;6.738;2022-12-18T10:16:11;55.10;;;51.30;;
53267;SDS011;39156;51.176;6.738;2022-12-18T10:24:33;55.08;;;51.28;;
53267;SDS011;39156;51.176;6.738;2022-12-18T10:27:13;54.15;;;50.58;;
53267;SDS011;39156;51.176;6.738;2022-12-18T10:29:42;56.95;;;52.85;;
53267;SDS011;39156;51.176;6.738;2022-12-18T10:32:14;55.53;;;51.72;;
53267;SDS011;39156;51.176;6.738;2022-12-18T10:34:49;55.40;;;51.80;;
53267;SDS011;39156;51.176;6.738;2022-12-18T10:37:20;55.28;;;51.63;;
53267;SDS011;39156;51.176;6.738;2022-12-18T10:43:03;54.07;;;50.37;;
53267;SDS011;39156;51.176;6.738;2022-12-18T10:45:31;54.80;;;51.05;;
53267;SDS011;39156;51.176;6.738;2022-12-18T10:47:56;57.03;;;53.13;;
53267;SDS011;39156;51.176;6.738;2022-12-18T10:50:27;53.63;;;50.13;;
53267;SDS011;39156;51.176;6.738;2022-12-18T10:52:56;55.67;;;51.60;;
53267;SDS011;39156;51.176;6.738;2022-12-18T10:55:32;55.25;;;51.28;;
53267;SDS011;39156;51.176;6.738;2022-12-18T10:58:22;54.53;;;50.70;;
53267;SDS011;39156;51.176;6.738;2022-12-18T11:01:30;54.75;;;50.85;;
53267;SDS011;39156;51.176;6.738;2022-12-18T11:06:16;55.13;;;51.28;;
53267;SDS011;39156;51.176;6.738;2022-12-18T11:08:57;54.85;;;50.80;;
53267;SDS011;39156;51.176;6.738;2022-12-18T11:11:27;55.20;;;51.30;;
53267;SDS011;39156;51.176;6.738;2022-12-18T11:16:28;54.92;;;51.33;;
53267;SDS011;39156;51.176;6.738;2022-12-18T11:22:01;55.28;;;51.17;;
53267;SDS011;39156;51.176;6.738;2022-12-18T11:24:42;55.65;;;51.90;;
53267;SDS011;39156;51.176;6.738;2022-12-18T11:27:15;58.03;;;52.88;;
53267;SDS011;39156;51.176;6.738;2022-12-18T11:29:43;54.60;;;50.88;;
53267;SDS011;39156;51.176;6.738;2022-12-18T11:34:59;55.13;;;50.95;;
53267;SDS011;39156;51.176;6.738;2022-12-18T11:37:39;56.20;;;52.40;;
53267;SDS011;39156;51.176;6.738;2022-12-18T11:40:13;55.55;;;51.35;;
53267;SDS011;39156;51.176;6.738;2022-12-18T11:42:51;54.60;;;50.90;;
53267;SDS011;39156;51.176;6.738;2022-12-18T11:45:26;55.78;;;51.88;;
53267;SDS011;39156;51.176;6.738;2022-12-18T11:48:17;55.50;;;51.58;;
53267;SDS011;39156;51.176;6.738;2022-12-18T11:50:51;56.05;;;52.15;;
53267;SDS011;39156;51.176;6.738;2022-12-18T11:53:22;56.05;;;52.25;;
53267;SDS011;39156;51.176;6.738;2022-12-18T12:01:40;56.85;;;52.78;;
53267;SDS011;39156;51.176;6.738;2022-12-18T12:04:31;56.40;;;52.33;;
53267;SDS011;39156;51.176;6.738;2022-12-18T12:07:24;56.33;;;52.40;;
53267;SDS011;39156;51.176;6.738;2022-12-18T12:10:26;56.28;;;52.17;;
53267;SDS011;39156;51.176;6.738;2022-12-18T12:13:08;58.03;;;53.15;;
53267;SDS011;39156;51.176;6.738;2022-12-18T12:21:47;56.78;;;52.60;;
53267;SDS011;39156;51.176;6.738;2022-12-18T12:36:24;58.45;;;54.28;;
53267;SDS011;39156;51.176;6.738;2022-12-18T12:39:36;58.10;;;53.97;;
53267;SDS011;39156;51.176;6.738;2022-12-18T12:42:05;59.13;;;54.97;;
53267;SDS011;39156;51.176;6.738;2022-12-18T12:45:20;57.97;;;54.00;;
53267;SDS011;39156;51.176;6.738;2022-12-18T12:47:52;57.00;;;52.90;;
53267;SDS011;39156;51.176;6.738;2022-12-18T12:50:19;57.78;;;53.58;;
53267;SDS011;39156;51.176;6.738;2022-12-18T12:55:20;58.83;;;54.50;;
53267;SDS011;39156;51.176;6.738;2022-12-18T13:00:38;59.03;;;54.63;;
53267;SDS011;39156;51.176;6.738;2022-12-18T13:03:23;60.38;;;56.08;;
53267;SDS011;39156;51.176;6.738;2022-12-18T13:06:00;59.53;;;55.42;;
53267;SDS011;39156;51.176;6.738;2022-12-18T13:09:00;58.85;;;54.75;;
53267;SDS011;39156;51.176;6.738;2022-12-18T13:11:31;58.58;;;54.47;;
53267;SDS011;39156;51.176;6.738;2022-12-18T13:14:23;61.10;;;56.72;;
53267;SDS011;39156;51.176;6.738;2022-12-18T13:16:51;59.75;;;55.13;;
53267;SDS011;39156;51.176;6.738;2022-12-18T13:19:40;61.47;;;56.78;;
53267;SDS011;39156;51.176;6.738;2022-12-18T13:22:19;61.22;;;56.60;;
53267;SDS011;39156;51.176;6.738;2022-12-18T13:24:53;58.42;;;54.25;;
53267;SDS011;39156;51.176;6.738;2022-12-18T13:38:24;60.15;;;55.47;;
53267;SDS011;39156;51.176;6.738;2022-12-18T13:43:54;60.08;;;55.58;;
53267;SDS011;39156;51.176;6.738;2022-12-18T13:46:25;61.35;;;56.63;;
53267;SDS011;39156;51.176;6.738;2022-12-18T13:51:39;60.65;;;56.25;;
53267;SDS011;39156;51.176;6.738;2022-12-18T13:57:05;62.28;;;57.58;;
53267;SDS011;39156;51.176;6.738;2022-12-18T14:02:50;60.58;;;56.13;;
53267;SDS011;39156;51.176;6.738;2022-12-18T14:05:21;61.00;;;56.53;;
53267;SDS011;39156;51.176;6.738;2022-12-18T14:08:01;62.60;;;57.63;;
53267;SDS011;39156;51.176;6.738;2022-12-18T14:10:35;61.78;;;57.28;;
53267;SDS011;39156;51.176;6.738;2022-12-18T14:13:07;62.15;;;57.70;;
53267;SDS011;39156;51.176;6.738;2022-12-18T14:15:36;61.10;;;56.35;;
53267;SDS011;39156;51.176;6.738;2022-12-18T14:21:23;63.15;;;58.45;;
53267;SDS011;39156;51.176;6.738;2022-12-18T14:24:04;62.72;;;58.08;;
53267;SDS011;39156;51.176;6.738;2022-12-18T14:26:45;61.50;;;56.80;;
53267;SDS011;39156;51.176;6.738;2022-12-18T14:34:46;64.82;;;59.90;;
53267;SDS011;39156;51.176;6.738;2022-12-18T14:37:15;63.55;;;58.85;;
53267;SDS011;39156;51.176;6.738;2022-12-18T14:39:52;66.85;;;61.75;;
53267;SDS011;39156;51.176;6.738;2022-12-18T14:42:26;62.55;;;57.88;;
53267;SDS011;39156;51.176;6.738;2022-12-18T14:48:06;64.78;;;59.78;;
53267;SDS011;39156;51.176;6.738;2022-12-18T14:51:03;63.92;;;59.08;;
53267;SDS011;39156;51.176;6.738;2022-12-18T14:53:57;66.43;;;61.20;;
53267;SDS011;39156;51.176;6.738;2022-12-18T14:56:30;68.20;;;63.20;;
53267;SDS011;39156;51.176;6.738;2022-12-18T14:59:20;66.65;;;61.22;;
53267;SDS011;39156;51.176;6.738;2022-12-18T15:01:53;63.17;;;58.20;;
53267;SDS011;39156;51.176;6.738;2022-12-18T15:04:35;65.07;;;60.05;;
53267;SDS011;39156;51.176;6.738;2022-12-18T15:09:42;64.70;;;59.38;;
53267;SDS011;39156;51.176;6.738;2022-12-18T15:15:02;67.00;;;61.70;;
53267;SDS011;39156;51.176;6.738;2022-12-18T15:17:30;64.97;;;60.17;;
53267;SDS011;39156;51.176;6.738;2022-12-18T15:20:00;65.55;;;60.78;;
53267;SDS011;39156;51.176;6.738;2022-12-18T15:22:34;65.38;;;60.55;;
53267;SDS011;39156;51.176;6.738;2022-12-18T15:25:01;65.70;;;60.67;;
53267;SDS011;39156;51.176;6.738;2022-12-18T15:27:50;66.47;;;61.50;;
53267;SDS011;39156;51.176;6.738;2022-12-18T15:30:17;65.68;;;60.88;;
53267;SDS011;39156;51.176;6.738;2022-12-18T15:32:46;65.63;;;60.70;;
53267;SDS011;39156;51.176;6.738;2022-12-18T15:35:15;65.63;;;60.55;;
53267;SDS011;39156;51.176;6.738;2022-12-18T15:37:43;68.72;;;63.63;;
53267;SDS011;39156;51.176;6.738;2022-12-18T15:40:13;65.27;;;59.80;;
53267;SDS011;39156;51.176;6.738;2022-12-18T15:42:41;66.13;;;60.63;;
53267;SDS011;39156;51.176;6.738;2022-12-18T15:45:26;63.75;;;59.05;;
53267;SDS011;39156;51.176;6.738;2022-12-18T15:47:52;65.03;;;60.03;;
53267;SDS011;39156;51.176;6.738;2022-12-18T15:50:18;65.88;;;60.70;;
53267;SDS011;39156;51.176;6.738;2022-12-18T15:52:45;67.30;;;61.80;;
53267;SDS011;39156;51.176;6.738;2022-12-18T15:55:13;66.80;;;61.85;;
53267;SDS011;39156;51.176;6.738;2022-12-18T15:57:59;66.10;;;61.03;;
53267;SDS011;39156;51.176;6.738;2022-12-18T16:00:25;66.03;;;61.03;;
53267;SDS011;39156;51.176;6.738;2022-12-18T16:02:51;67.00;;;61.55;;
53267;SDS011;39156;51.176;6.738;2022-12-18T16:05:17;67.43;;;62.08;;
53267;SDS011;39156;51.176;6.738;2022-12-18T16:07:45;63.42;;;58.35;;
53267;SDS011;39156;51.176;6.738;2022-12-18T16:10:11;68.47;;;63.13;;
53267;SDS011;39156;51.176;6.738;2022-12-18T16:12:37;63.83;;;59.03;;
53267;SDS011;39156;51.176;6.738;2022-12-18T16:15:04;64.22;;;59.20;;
53267;SDS011;39156;51.176;6.738;2022-12-18T16:17:31;65.07;;;60.05;;
53267;SDS011;39156;51.176;6.738;2022-12-18T16:19:57;67.25;;;62.20;;
53267;SDS011;39156;51.176;6.738;2022-12-18T16:22:29;65.72;;;60.55;;
53267;SDS011;39156;51.176;6.738;2022-12-18T16:24:55;65.70;;;60.35;;
53267;SDS011;39156;51.176;6.738;2022-12-18T16:27:22;65.15;;;60.10;;
53267;SDS011;39156;51.176;6.738;2022-12-18T16:29:48;67.20;;;61.97;;
53267;SDS011;39156;51.176;6.738;2022-12-18T16:32:16;65.97;;;60.75;;
53267;SDS011;39156;51.176;6.738;2022-12-18T16:34:44;66.53;;;61.38;;
53267;SDS011;39156;51.176;6.738;2022-12-18T16:37:11;66.40;;;61.17;;
53267;SDS011;39156;51.176;6.738;2022-12-18T16:39:39;64.88;;;59.92;;
53267;SDS011;39156;51.176;6.738;2022-12-18T16:44:39;66.82;;;61.33;;
53267;SDS011;39156;51.176;6.738;2022-12-18T16:47:05;69.03;;;63.55;;
53267;SDS011;39156;51.176;6.738;2022-12-18T16:49:31;65.47;;;60.05;;
53267;SDS011;39156;51.176;6.738;2022-12-18T16:51:57;67.07;;;61.78;;
53267;SDS011;39156;51.176;6.738;2022-12-18T16:54:23;69.35;;;64.03;;
53267;SDS011;39156;51.176;6.738;2022-12-18T16:56:49;66.63;;;61.40;;
53267;SDS011;39156;51.176;6.738;2022-12-18T16:59:16;66.88;;;61.53;;